SoundGuardian — WDI8675 — position and weather

sailwx.info

Track history (hours):
 
Tides and Currents Weather Stations Pressure Air Temp Water Temp Dewpoint Dewpoint Depression Visibility Wind Speed Wind Dir Waves Ship Positions

Oceanographic research ship SoundGuardian (United States)

Owner: King County Environmental Laboratory, Seattle, WA. More information available from US FCC via Universal Licensing System and Coast Guard Vessel Documentation Center.

Last reported at 2018-Dec-10 21:23 UTC. Time now 2018-Dec-13 16:15 UTC.
Position N 47°39' W 122°22'.

Length 13 m; draft 1 m.

Type: Other ship. MMSI: 367741020.

Date/timePositionNaut miles runAvg speedWind from/ knotsBaromVisibWave heightAir tempDewpointWater temp
2018-Dec-10 21:23N 47°39' W 122°22'1 3.9
2018-Dec-10 21:01N 47°40' W 122°24'2 3.9
2018-Dec-10 20:30N 47°39' W 122°21'1 2.1
2018-Dec-10 20:00N 47°38' W 122°20'2 3.2
2018-Dec-10 19:30N 47°39' W 122°18'613.1
2018-Dec-10 19:01N 47°33' W 122°15'1 1.1
2018-Dec-10 18:31N 47°33' W 122°15'3 6.6
2018-Dec-10 18:00N 47°37' W 122°15'2 3.1
2018-Dec-10 17:30N 47°38' W 122°16'3 6.6
2018-Dec-10 17:00N 47°41' W 122°14'3 3.1
2018-Dec-10 16:10N 47°43' W 122°16'426.2
2018-Dec-10 16:00N 47°39' W 122°16'3 6.0
2018-Dec-10 15:30N 47°39' W 122°20'1 2.2
2018-Dec-10 15:00N 47°39' W 122°22'0 0.0
2018-Dec-10 14:30N 47°39' W 122°22'  
Track history (hours):
 
Tides and Currents Weather Stations Pressure Air Temp Water Temp Dewpoint Dewpoint Depression Visibility Wind Speed Wind Dir Waves Ship Positions

Oceanographic research ship SoundGuardian (United States)

Owner: King County Environmental Laboratory, Seattle, WA. More information available from US FCC via Universal Licensing System and Coast Guard Vessel Documentation Center.

Last reported at 2018-Dec-10 21:23 UTC. Time now 2018-Dec-13 16:15 UTC.
Position N 47°39' W 122°22'.

Length 13 m; draft 1 m.

Type: Other ship. MMSI: 367741020.

Date/timePositionNaut miles runAvg speedWind from/ knotsBaromVisibWave heightAir tempDewpointWater temp
2018-Dec-10 21:23N 47°39' W 122°22'1 3.9
2018-Dec-10 21:01N 47°40' W 122°24'2 3.9
2018-Dec-10 20:30N 47°39' W 122°21'1 2.1
2018-Dec-10 20:00N 47°38' W 122°20'2 3.2
2018-Dec-10 19:30N 47°39' W 122°18'613.1
2018-Dec-10 19:01N 47°33' W 122°15'1 1.1
2018-Dec-10 18:31N 47°33' W 122°15'3 6.6
2018-Dec-10 18:00N 47°37' W 122°15'2 3.1
2018-Dec-10 17:30N 47°38' W 122°16'3 6.6
2018-Dec-10 17:00N 47°41' W 122°14'3 3.1
2018-Dec-10 16:10N 47°43' W 122°16'426.2
2018-Dec-10 16:00N 47°39' W 122°16'3 6.0
2018-Dec-10 15:30N 47°39' W 122°20'1 2.2
2018-Dec-10 15:00N 47°39' W 122°22'0 0.0
2018-Dec-10 14:30N 47°39' W 122°22'  

Dump ship's entire track history